• Join FlightAware (Why Join?)
  • Login
  • US Flag 
04:53AM EDT


 

Airport Tracker/Info


-or-


 

Live Flight TrackerFlight Track Log ✈ UAL4407 ✈ 15-Apr-2013 ✈ KMHT - KEWR

Flight Track Log - Related Links

Times and Time Zones

All times are in EDT time to prevent confusion due to time zone crossing. See the UAL4407 flight status page for this flight to view local times or setup timezone preferences in your user account.

Time Position Orientation Groundspeed Altitude Reporting Facility
EDT Latitude Longitude Course Direction KTS MPH feet Rate Location/Type
06:17AM 42.9667 -71.4000 276° West 174 200 1,900  Level KA90
06:18AM 43.0333 -71.3833 10° North 211 243 4,600 2,280 Climbing KA90
06:19AM 43.0692 -71.4511 306° West 228 262 7,200 1,980 Climbing Boston Center
06:20AM 42.9775 -71.8861 280° West  Level FlightAware Approximate
06:20AM 43.1094 -71.5272 306° West 244 281 9,100  Level Boston Center
06:21AM 43.0010 -71.9963 276° West  Level FlightAware Approximate
06:21AM 43.1433 -71.6092 300° West 255 293 11,200  Level Boston Center
06:22AM 43.0099 -72.1115 276° West  Level FlightAware Approximate
06:22AM 43.1339 -71.7175 263° West 255 293 12,400  Level Boston Center
06:23AM 43.1117 -71.8372 256° West 307 353 13,700 1,320 Climbing Boston Center
06:24AM 43.0892 -71.9539 255° West 325 374 15,100 1,200 Climbing Boston Center
06:25AM 43.0667 -72.0819 257° West 337 388 16,100 480 Climbing Boston Center
06:26AM 43.0483 -72.1958 258° West 342 394 16,100  Level Boston Center
06:27AM 43.0236 -72.3378 257° West 342 394 16,100  Level Boston Center
06:28AM 43.0028 -72.4628 257° West 342 394 16,100  Level Boston Center
06:29AM 42.9775 -72.5906 255° West 342 394 16,100 -60 Level Boston Center
06:30AM 42.9544 -72.7181 256° West 342 394 16,000 -60 Descending Boston Center
06:31AM 42.9333 -72.8428 257° West 342 394 16,000  Level Boston Center
06:32AM 42.9097 -72.9672 256° West 342 394 16,000  Level Boston Center
06:33AM 42.8864 -73.0747 254° West 342 394 16,100  Climbing Boston Center
06:34AM 42.8606 -73.2133 256° West 336 387 16,000  Descending Boston Center
06:35AM 42.8367 -73.3347 255° West 336 387 16,100  Climbing Boston Center
06:36AM 42.8147 -73.4589 256° West 336 387 16,100 -60 Level Boston Center
06:37AM 42.7906 -73.5803 255° West 336 387 16,000  Descending Boston Center
06:38AM 42.7664 -73.7042 255° West 336 387 16,100  Climbing Boston Center
06:39AM 42.7192 -73.8192 241° Southwest 335 386 16,000 -60 Descending Boston Center
06:40AM 42.6164 -73.8706 200° South 344 396 16,000  Level Boston Center
06:41AM 42.5117 -73.9103 196° South 367 422 16,100  Climbing Boston Center
06:42AM 42.4194 -73.9503 198° South 390 449 16,100  Level Boston Center
06:43AM 42.3064 -74.0008 198° South 390 449 16,100  Level Boston Center
06:44AM 42.2161 -74.0408 198° South 390 449 16,100 -60 Level Boston Center
06:45AM 42.1028 -74.0911 198° South 390 449 16,000 -60 Descending Boston Center
06:46AM 42.0000 -74.1358 198° South 390 449 16,000 -600 Level Boston Center
06:47AM 41.8972 -74.1806 198° South 390 449 14,900 -1,260 Descending Boston Center
06:48AM 41.7944 -74.2278 199° South 390 449 13,500 -1,440 Descending Boston Center
06:49AM 41.6958 -74.2694 198° South 378 435 12,100 -1,440 Descending Boston Center
06:50AM 41.6139 -74.3033 197° South 358 412 10,800 -1,680 Descending Boston Center
06:51AM 41.5278 -74.3422 199° South 326 375 8,800 -1,440 Descending Boston Center
06:53AM 41.3667 -74.4000 195° South 261 300 6,400 -900 Descending New York TRACON
06:54AM 41.3000 -74.4333 201° Southwest 257 296 6,100 -180 Descending New York TRACON
06:55AM 41.2333 -74.4667 201° Southwest 250 288 6,100 -60 Level New York TRACON
06:56AM 41.1667 -74.5000 201° Southwest 255 293 6,000  Descending New York TRACON
06:57AM 41.1000 -74.5167 191° South 258 297 6,100  Climbing New York TRACON
06:58AM 41.0500 -74.5500 207° Southwest 259 298 6,100  Level New York TRACON
06:59AM 40.9667 -74.5667 189° South 258 297 6,100  Level New York TRACON
07:00AM 40.9167 -74.5667 180° South 255 293 6,100 -60 Level New York TRACON
07:01AM 40.8333 -74.5667 180° South 263 303 6,000  Descending New York TRACON
07:02AM 40.7667 -74.5500 169° South 262 302 6,100  Climbing New York TRACON
07:03AM 40.7000 -74.5333 169° South 260 299 6,000 -420 Descending New York TRACON
07:04AM 40.6333 -74.5000 159° South 273 314 5,400 -600 Descending New York TRACON
07:05AM 40.5833 -74.4333 135° Southeast 262 302 4,900 -780 Descending New York TRACON
07:06AM 40.5333 -74.3833 143° Southeast 254 292 4,000 -1,020 Descending New York TRACON
07:07AM 40.5167 -74.3167 108° East 240 276 3,100 -1,020 Descending New York TRACON